Rosetta, Mississippi
Current Conditions -  °F | °C
As of 9:35 AM on Sunday 21 Dec 2014 (Local Time) from KHEZ Reporting Station
Broken Clouds Broken Clouds  
Wind Chill: 45°   Ceiling: 600
Heat Index: 45°   Visibility: 10mi
Dew Point: 43°   Wind: 3mph
Humidity: 93%   Direction: 70°ENE
Pressure: 30.16"   Gusts: NA
Location:  31.312°N, 90.9827°W
Report Text: KHEZ 211535Z AUTO 07003KT 10SM BKN006 07/06 A3016 RMK AO1
Loading
Personal Weather Stations






























Interactive Weather Map New forecast layout! Learn more

10-Day Weather Forecast

Advertisements
Track Severe Weather on mobile